createdAt,value
2019-04-28T00:00:44.641Z,7.70
2019-04-28T00:03:13.595Z,7.70
2019-04-28T00:05:42.479Z,7.70
2019-04-28T00:08:11.460Z,7.80
2019-04-28T00:10:41.820Z,7.80
2019-04-28T00:13:11.336Z,7.80
2019-04-28T00:15:41.688Z,7.80
2019-04-28T00:18:11.905Z,7.90
2019-04-28T00:20:58.633Z,7.80
2019-04-28T00:23:51.197Z,7.80
2019-04-28T00:26:40.957Z,7.90
2019-04-28T00:29:11.138Z,7.90
2019-04-28T00:31:41.357Z,7.90
2019-04-28T00:34:11.459Z,7.80
2019-04-28T00:36:43.026Z,7.80
2019-04-28T00:39:12.416Z,7.90
2019-04-28T00:41:42.033Z,7.90
2019-04-28T00:44:11.935Z,7.80
2019-04-28T00:46:41.968Z,7.80
2019-04-28T00:49:11.821Z,7.80
2019-04-28T00:51:41.590Z,7.90
2019-04-28T00:54:12.158Z,7.80
2019-04-28T00:56:41.842Z,7.80
2019-04-28T00:59:11.816Z,7.80
2019-04-28T01:01:51.306Z,7.80
2019-04-28T01:04:21.898Z,7.70
2019-04-28T01:06:52.049Z,7.70
2019-04-28T01:09:21.901Z,7.70
2019-04-28T01:11:53.401Z,7.70
2019-04-28T01:14:21.681Z,7.70
2019-04-28T01:17:00.278Z,7.70
2019-04-28T01:19:32.567Z,7.70
2019-04-28T01:22:16.336Z,7.70
2019-04-28T01:24:45.410Z,7.70
2019-04-28T01:27:36.518Z,7.60
2019-04-28T01:30:11.367Z,7.60
2019-04-28T01:32:46.012Z,7.60
2019-04-28T01:35:15.269Z,7.60
2019-04-28T01:37:44.266Z,7.60
2019-04-28T01:40:13.295Z,7.60
2019-04-28T01:42:42.146Z,7.60
2019-04-28T01:45:11.372Z,7.60
2019-04-28T01:47:40.626Z,7.60
2019-04-28T01:50:10.191Z,7.60
2019-04-28T01:52:39.946Z,7.60
2019-04-28T01:55:10.147Z,7.60
2019-04-28T01:57:40.002Z,7.50
2019-04-28T02:00:22.345Z,7.50
2019-04-28T02:02:42.886Z,7.50
2019-04-28T02:05:11.903Z,7.50
2019-04-28T02:07:40.929Z,7.50
2019-04-28T02:10:10.377Z,7.40
2019-04-28T02:12:40.312Z,7.40
2019-04-28T02:15:10.464Z,7.40
2019-04-28T02:17:40.178Z,7.40
2019-04-28T02:20:10.398Z,7.40
2019-04-28T02:22:45.311Z,7.40
2019-04-28T02:25:14.410Z,7.40
2019-04-28T02:27:43.215Z,7.40
2019-04-28T02:30:12.607Z,7.30
2019-04-28T02:32:41.594Z,7.30
2019-04-28T02:35:10.980Z,7.40
2019-04-28T02:37:40.580Z,7.40
2019-04-28T02:40:10.820Z,7.40
2019-04-28T02:42:40.931Z,7.40
2019-04-28T02:45:11.665Z,7.40
2019-04-28T02:47:41.980Z,7.40
2019-04-28T02:50:21.246Z,7.40
2019-04-28T02:52:57.895Z,7.30
2019-04-28T02:55:26.804Z,7.30
2019-04-28T02:57:55.686Z,7.30
2019-04-28T03:00:24.603Z,7.20
2019-04-28T03:02:53.552Z,7.20
2019-04-28T03:05:22.632Z,7.30
2019-04-28T03:07:51.937Z,7.20
2019-04-28T03:10:21.650Z,7.20
2019-04-28T03:12:51.809Z,7.20
2019-04-28T03:15:21.245Z,7.20
2019-04-28T03:17:52.967Z,7.10
2019-04-28T03:20:21.301Z,7.10
2019-04-28T03:22:51.191Z,7.10
2019-04-28T03:25:40.820Z,7.10
2019-04-28T03:28:33.612Z,7.10
2019-04-28T03:31:36.699Z,7.20
2019-04-28T03:33:47.301Z,7.20
2019-04-28T03:36:15.450Z,7.20
2019-04-28T03:38:41.870Z,7.20
2019-04-28T03:41:11.361Z,7.20
2019-04-28T03:43:40.733Z,7.30
2019-04-28T03:46:15.118Z,7.30
2019-04-28T03:48:44.003Z,7.30
2019-04-28T03:51:13.478Z,7.30
2019-04-28T03:53:42.689Z,7.30
2019-04-28T03:56:11.559Z,7.30
2019-04-28T03:58:40.748Z,7.30
2019-04-28T04:01:10.820Z,7.30
2019-04-28T04:03:41.696Z,7.40
2019-04-28T04:06:10.759Z,7.30
2019-04-28T04:08:40.766Z,7.40
2019-04-28T04:11:15.555Z,7.30
2019-04-28T04:13:51.213Z,7.40
2019-04-28T04:16:30.769Z,7.40
2019-04-28T04:19:00.738Z,7.30
2019-04-28T04:21:30.970Z,7.40
2019-04-28T04:24:01.048Z,7.40
2019-04-28T04:26:32.874Z,7.40
2019-04-28T04:29:01.164Z,7.40
2019-04-28T04:31:31.793Z,7.40
2019-04-28T04:34:03.084Z,7.40
2019-04-28T04:36:31.386Z,7.40
2019-04-28T04:39:01.699Z,7.50
2019-04-28T04:41:31.058Z,7.40
2019-04-28T04:44:01.198Z,7.40
2019-04-28T04:46:31.389Z,7.50
2019-04-28T04:49:00.983Z,7.50
2019-04-28T04:51:30.970Z,7.50
2019-04-28T04:54:01.199Z,7.50
2019-04-28T04:56:30.519Z,7.50
2019-04-28T04:59:02.182Z,7.50
2019-04-28T05:01:50.208Z,7.60
2019-04-28T05:04:26.034Z,7.50
2019-04-28T05:06:54.884Z,7.50
2019-04-28T05:09:23.771Z,7.60
2019-04-28T05:11:52.602Z,7.70
2019-04-28T05:14:21.494Z,7.70
2019-04-28T05:16:50.348Z,7.70
2019-04-28T05:19:19.902Z,7.80
2019-04-28T05:21:49.802Z,7.80
2019-04-28T05:24:30.450Z,7.80
2019-04-28T05:26:59.631Z,7.90
2019-04-28T05:29:30.435Z,7.90
2019-04-28T05:32:03.155Z,7.90
2019-04-28T05:34:30.067Z,7.90
2019-04-28T05:37:00.562Z,8.00
2019-04-28T05:39:29.856Z,8.00
2019-04-28T05:42:00.663Z,8.00
2019-04-28T05:44:29.908Z,8.00
2019-04-28T05:47:00.051Z,8.00
2019-04-28T05:49:46.929Z,8.10
2019-04-28T05:52:34.025Z,8.00
2019-04-28T05:55:10.277Z,8.10
2019-04-28T05:57:43.639Z,8.10
2019-04-28T06:00:33.563Z,8.10
2019-04-28T06:03:02.896Z,8.10
2019-04-28T06:05:32.044Z,8.10
2019-04-28T06:08:30.323Z,8.10
2019-04-28T06:10:59.905Z,8.10
2019-04-28T06:13:30.296Z,8.10
2019-04-28T06:15:59.869Z,8.10
2019-04-28T06:18:30.721Z,8.10
2019-04-28T06:20:59.864Z,8.10
2019-04-28T06:23:28.729Z,8.10
2019-04-28T06:25:57.655Z,8.20
2019-04-28T06:28:27.005Z,8.20
2019-04-28T06:30:55.875Z,8.20
2019-04-28T06:33:25.025Z,8.30
2019-04-28T06:35:53.939Z,8.30
2019-04-28T06:38:22.856Z,8.40
2019-04-28T06:40:51.819Z,8.50
2019-04-28T06:43:20.707Z,8.50
2019-04-28T06:45:49.533Z,8.60
2019-04-28T06:48:18.447Z,8.70
2019-04-28T06:50:47.342Z,8.70
2019-04-28T06:53:16.182Z,8.80
2019-04-28T06:55:45.074Z,8.80
2019-04-28T06:58:13.931Z,8.90
2019-04-28T07:00:42.731Z,8.90
2019-04-28T07:03:22.658Z,9.00
2019-04-28T07:05:42.239Z,9.10
2019-04-28T07:08:13.796Z,9.20
2019-04-28T07:10:41.632Z,9.20
2019-04-28T07:13:10.543Z,9.20
2019-04-28T07:15:39.347Z,9.20
2019-04-28T07:18:08.185Z,9.30
2019-04-28T07:20:49.578Z,9.30
2019-04-28T07:23:18.506Z,9.50
2019-04-28T07:25:47.304Z,9.70
2019-04-28T07:28:16.142Z,9.80
2019-04-28T07:30:45.044Z,9.90
2019-04-28T07:33:13.943Z,10.10
2019-04-28T07:35:42.774Z,10.20
2019-04-28T07:38:11.674Z,10.30
2019-04-28T07:40:40.566Z,10.50
2019-04-28T07:43:09.549Z,10.60
2019-04-28T07:45:38.370Z,10.50
2019-04-28T07:48:07.332Z,10.40
2019-04-28T07:50:36.302Z,10.30
2019-04-28T07:53:14.379Z,10.50
2019-04-28T07:55:43.345Z,10.60
2019-04-28T07:58:12.234Z,10.40
2019-04-28T08:00:41.219Z,10.50
2019-04-28T08:03:10.114Z,10.60
2019-04-28T08:05:38.964Z,10.50
2019-04-28T08:08:07.778Z,10.50
2019-04-28T08:10:36.717Z,10.40
2019-04-28T08:13:05.615Z,10.40
2019-04-28T08:15:34.599Z,10.40
2019-04-28T08:18:04.250Z,10.50
2019-04-28T08:20:33.463Z,10.40
2019-04-28T08:23:02.354Z,10.40
2019-04-28T08:25:31.177Z,10.30
2019-04-28T08:28:00.394Z,10.30
2019-04-28T08:30:29.297Z,10.50
2019-04-28T08:33:14.994Z,10.80
2019-04-28T08:35:43.994Z,11.10
2019-04-28T08:38:12.804Z,11.40
2019-04-28T08:40:41.790Z,11.60
2019-04-28T08:43:10.611Z,11.60
2019-04-28T08:45:39.460Z,11.60
2019-04-28T08:48:08.348Z,11.30
2019-04-28T08:50:37.179Z,11.20
2019-04-28T08:53:06.079Z,11.20
2019-04-28T08:55:35.088Z,11.30
2019-04-28T08:58:04.007Z,11.40
2019-04-28T09:00:32.916Z,11.30
2019-04-28T09:03:01.725Z,11.20
2019-04-28T09:05:30.624Z,11.10
2019-04-28T09:07:59.460Z,11.30
2019-04-28T09:10:28.530Z,11.40
2019-04-28T09:12:57.357Z,11.40
2019-04-28T09:15:26.247Z,11.50
2019-04-28T09:17:55.216Z,11.70
2019-04-28T09:20:24.122Z,11.80
2019-04-28T09:22:53.119Z,11.80
2019-04-28T09:25:22.088Z,11.80
2019-04-28T09:27:50.918Z,11.80
2019-04-28T09:30:19.962Z,11.70
2019-04-28T09:32:48.863Z,11.70
2019-04-28T09:35:17.766Z,11.60
2019-04-28T09:37:46.579Z,11.70
2019-04-28T09:40:16.511Z,11.80
2019-04-28T09:43:16.587Z,11.90
2019-04-28T09:45:50.955Z,12.30
2019-04-28T09:48:19.871Z,12.40
2019-04-28T09:50:48.800Z,12.80
2019-04-28T09:53:17.687Z,13.00
2019-04-28T09:55:46.571Z,13.00
2019-04-28T09:58:15.387Z,13.20
2019-04-28T10:00:44.194Z,13.80
2019-04-28T10:03:13.024Z,14.40
2019-04-28T10:05:41.830Z,14.50
2019-04-28T10:08:10.802Z,14.30
2019-04-28T10:10:39.679Z,14.00
2019-04-28T10:13:08.507Z,13.70
2019-04-28T10:15:37.322Z,13.50
2019-04-28T10:18:06.210Z,13.30
2019-04-28T10:20:35.342Z,13.30
2019-04-28T10:23:04.434Z,13.20
2019-04-28T10:25:33.521Z,13.10
2019-04-28T10:28:02.455Z,13.00
2019-04-28T10:30:31.625Z,12.90
2019-04-28T10:33:00.570Z,12.90
2019-04-28T10:35:29.447Z,12.80
2019-04-28T10:37:58.367Z,12.70
2019-04-28T10:40:42.170Z,12.70
2019-04-28T10:43:11.223Z,12.80
2019-04-28T10:45:48.359Z,12.60
2019-04-28T10:48:17.626Z,12.60
2019-04-28T10:50:46.710Z,12.50
2019-04-28T10:53:15.763Z,12.40
2019-04-28T10:55:44.577Z,12.40
2019-04-28T10:58:13.550Z,12.40
2019-04-28T11:00:42.999Z,12.40
2019-04-28T11:03:11.963Z,12.40
2019-04-28T11:05:42.472Z,12.40
2019-04-28T11:08:20.465Z,12.40
2019-04-28T11:10:49.355Z,12.40
2019-04-28T11:13:18.398Z,12.40
2019-04-28T11:15:47.367Z,12.50
2019-04-28T11:18:16.790Z,12.50
2019-04-28T11:20:45.774Z,12.70
2019-04-28T11:23:14.670Z,12.80
2019-04-28T11:25:44.636Z,12.70
2019-04-28T11:28:20.281Z,13.10
2019-04-28T11:30:49.222Z,13.80
2019-04-28T11:33:32.501Z,14.40
2019-04-28T11:36:01.415Z,15.10
2019-04-28T11:38:30.379Z,15.50
2019-04-28T11:40:59.310Z,15.90
2019-04-28T11:43:28.375Z,15.90
2019-04-28T11:45:57.392Z,16.20
2019-04-28T11:48:26.367Z,16.10
2019-04-28T11:50:55.271Z,16.10
2019-04-28T11:53:24.090Z,16.30
2019-04-28T11:55:53.001Z,16.50
2019-04-28T11:58:21.826Z,16.70
2019-04-28T12:00:50.735Z,16.20
2019-04-28T12:03:19.550Z,15.80
2019-04-28T12:05:48.628Z,15.30
2019-04-28T12:08:17.465Z,15.50
2019-04-28T12:10:51.906Z,15.70
2019-04-28T12:13:37.679Z,15.70
2019-04-28T12:16:25.591Z,16.00
2019-04-28T12:19:16.319Z,16.20
2019-04-28T12:21:45.372Z,16.30
2019-04-28T12:24:14.305Z,16.00
2019-04-28T12:26:46.036Z,15.70
2019-04-28T12:29:14.908Z,15.40
2019-04-28T12:31:43.807Z,15.20
2019-04-28T12:34:12.807Z,15.10
2019-04-28T12:36:41.651Z,14.80
2019-04-28T12:39:10.553Z,14.70
2019-04-28T12:41:39.405Z,14.50
2019-04-28T12:44:08.372Z,14.40
2019-04-28T12:46:37.266Z,14.20
2019-04-28T12:49:16.272Z,14.00
2019-04-28T12:51:46.350Z,13.80
2019-04-28T12:54:17.126Z,13.60
2019-04-28T12:56:46.028Z,13.30
2019-04-28T12:59:20.124Z,12.90
2019-04-28T13:02:07.098Z,12.50
2019-04-28T13:04:42.322Z,12.20
2019-04-28T13:07:11.158Z,11.80
2019-04-28T13:09:40.118Z,11.70
2019-04-28T13:12:09.088Z,11.30
2019-04-28T13:14:37.976Z,11.10
2019-04-28T13:17:06.895Z,11.00
2019-04-28T13:19:35.873Z,10.70
2019-04-28T13:22:05.586Z,10.50
2019-04-28T13:24:34.752Z,10.50
2019-04-28T13:27:03.829Z,10.40
2019-04-28T13:29:32.689Z,10.40
2019-04-28T13:32:01.600Z,10.40
2019-04-28T13:34:32.212Z,10.50
2019-04-28T13:37:01.148Z,10.50
2019-04-28T13:39:35.526Z,10.50
2019-04-28T13:42:04.455Z,10.50
2019-04-28T13:44:52.475Z,10.50
2019-04-28T13:47:21.821Z,10.50
2019-04-28T13:49:54.060Z,10.40
2019-04-28T13:52:23.038Z,10.50
2019-04-28T13:54:54.788Z,10.50
2019-04-28T13:57:23.671Z,10.60
2019-04-28T13:59:55.698Z,10.70
2019-04-28T14:02:42.660Z,10.80
2019-04-28T14:05:22.483Z,11.00
2019-04-28T14:07:51.405Z,11.10
2019-04-28T14:10:20.354Z,11.20
2019-04-28T14:12:49.186Z,11.20
2019-04-28T14:15:18.154Z,11.30
2019-04-28T14:17:46.994Z,11.40
2019-04-28T14:20:15.958Z,11.40
2019-04-28T14:22:44.786Z,11.80
2019-04-28T14:25:13.873Z,12.10
2019-04-28T14:27:42.746Z,12.40
2019-04-28T14:30:11.781Z,12.60
2019-04-28T14:32:40.635Z,12.90
2019-04-28T14:35:09.590Z,13.10
2019-04-28T14:37:38.472Z,13.20
2019-04-28T14:40:07.652Z,13.20
2019-04-28T14:42:36.522Z,13.40
2019-04-28T14:45:06.051Z,13.70
2019-04-28T14:47:35.012Z,14.00
2019-04-28T14:50:04.423Z,14.10
2019-04-28T14:52:33.327Z,14.40
2019-04-28T14:55:02.243Z,14.60
2019-04-28T14:57:31.108Z,14.90
2019-04-28T15:00:00.027Z,14.80
2019-04-28T15:02:40.234Z,14.80
2019-04-28T15:05:33.064Z,14.80
2019-04-28T15:08:20.219Z,14.90
2019-04-28T15:11:09.834Z,15.10
2019-04-28T15:13:38.801Z,15.10
2019-04-28T15:16:07.768Z,15.20
2019-04-28T15:18:36.588Z,15.30
2019-04-28T15:21:05.579Z,15.20
2019-04-28T15:23:34.485Z,15.20
2019-04-28T15:26:03.312Z,15.10
2019-04-28T15:28:33.268Z,15.10
2019-04-28T15:31:02.094Z,15.10
2019-04-28T15:33:30.915Z,15.20
2019-04-28T15:35:59.734Z,15.10
2019-04-28T15:38:28.545Z,15.10
2019-04-28T15:40:57.399Z,14.90
2019-04-28T15:43:26.221Z,15.10
2019-04-28T15:45:55.203Z,15.10
2019-04-28T15:48:24.047Z,15.20
2019-04-28T15:50:52.880Z,15.10
2019-04-28T15:53:21.770Z,15.10
2019-04-28T15:56:05.818Z,15.00
2019-04-28T15:58:36.538Z,15.00
2019-04-28T16:01:05.771Z,15.00
2019-04-28T16:03:34.579Z,15.10
2019-04-28T16:06:03.408Z,15.00
2019-04-28T16:08:32.296Z,15.00
2019-04-28T16:11:01.131Z,15.00
2019-04-28T16:13:29.941Z,15.10
2019-04-28T16:15:58.858Z,15.00
2019-04-28T16:18:27.799Z,15.00
2019-04-28T16:20:56.709Z,15.00
2019-04-28T16:23:25.524Z,14.90
2019-04-28T16:25:54.472Z,14.90
2019-04-28T16:28:23.383Z,14.90
2019-04-28T16:30:52.263Z,14.90
2019-04-28T16:33:21.164Z,15.00
2019-04-28T16:35:49.962Z,14.90
2019-04-28T16:38:18.810Z,14.90
2019-04-28T16:40:48.181Z,14.90
2019-04-28T16:43:17.169Z,14.80
2019-04-28T16:45:46.122Z,14.80
2019-04-28T16:48:14.995Z,14.90
2019-04-28T16:50:43.811Z,14.80
2019-04-28T16:53:12.704Z,14.60
2019-04-28T16:56:03.211Z,14.40
2019-04-28T16:59:00.544Z,14.50
2019-04-28T17:01:45.360Z,14.40
2019-04-28T17:04:14.179Z,14.30
2019-04-28T17:06:43.070Z,14.30
2019-04-28T17:09:12.375Z,14.30
2019-04-28T17:11:41.978Z,14.30
2019-04-28T17:14:11.418Z,14.20
2019-04-28T17:16:40.372Z,14.20
2019-04-28T17:19:09.331Z,14.10
2019-04-28T17:21:38.283Z,14.00
2019-04-28T17:24:07.655Z,14.00
2019-04-28T17:26:36.537Z,14.00
2019-04-28T17:29:05.814Z,14.00
2019-04-28T17:31:34.884Z,13.90
2019-04-28T17:34:04.512Z,13.80
2019-04-28T17:36:33.841Z,13.70
2019-04-28T17:39:02.825Z,13.70
2019-04-28T17:41:32.610Z,13.60
2019-04-28T17:44:01.504Z,13.50
2019-04-28T17:46:30.526Z,13.40
2019-04-28T17:49:00.258Z,13.40
2019-04-28T17:51:29.579Z,13.30
2019-04-28T17:53:58.499Z,13.30
2019-04-28T17:56:27.447Z,13.20
2019-04-28T17:58:56.282Z,13.10
2019-04-28T18:01:43.138Z,12.90
2019-04-28T18:04:30.076Z,12.80
2019-04-28T18:07:05.723Z,12.60
2019-04-28T18:09:35.330Z,12.50
2019-04-28T18:12:05.838Z,12.40
2019-04-28T18:14:36.947Z,12.20
2019-04-28T18:17:17.293Z,12.10
2019-04-28T18:19:47.289Z,11.90
2019-04-28T18:22:17.107Z,11.80
2019-04-28T18:24:46.246Z,11.60
2019-04-28T18:27:15.067Z,11.40
2019-04-28T18:29:43.971Z,11.30
2019-04-28T18:32:30.528Z,11.20
2019-04-28T18:35:08.796Z,11.20
2019-04-28T18:37:59.536Z,11.10
2019-04-28T18:40:44.304Z,11.00
2019-04-28T18:43:35.414Z,10.90
2019-04-28T18:46:04.400Z,10.70
2019-04-28T18:48:36.064Z,10.60
2019-04-28T18:51:03.792Z,10.60
2019-04-28T18:53:32.610Z,10.40
2019-04-28T18:56:01.463Z,10.30
2019-04-28T18:58:30.353Z,10.30
2019-04-28T19:01:15.066Z,10.20
2019-04-28T19:04:08.000Z,10.10
2019-04-28T19:06:37.062Z,10.00
2019-04-28T19:09:24.708Z,9.90
2019-04-28T19:12:01.366Z,9.90
2019-04-28T19:14:35.131Z,9.80
2019-04-28T19:17:22.002Z,9.80
2019-04-28T19:19:50.969Z,9.70
2019-04-28T19:22:19.804Z,9.70
2019-04-28T19:24:48.711Z,9.60
2019-04-28T19:27:17.612Z,9.50
2019-04-28T19:29:46.504Z,9.50
2019-04-28T19:32:15.396Z,9.40
2019-04-28T19:34:44.272Z,9.30
2019-04-28T19:37:13.111Z,9.20
2019-04-28T19:39:41.999Z,9.10
2019-04-28T19:42:10.983Z,9.00
2019-04-28T19:44:39.879Z,8.90
2019-04-28T19:47:08.763Z,8.90
2019-04-28T19:49:37.615Z,8.90
2019-04-28T19:52:06.750Z,8.80
2019-04-28T19:54:38.207Z,8.80
2019-04-28T19:57:12.479Z,8.70
2019-04-28T19:59:59.327Z,8.60
2019-04-28T20:02:30.827Z,8.60
2019-04-28T20:04:59.626Z,8.50
2019-04-28T20:07:28.585Z,8.40
2019-04-28T20:09:57.437Z,8.40
2019-04-28T20:12:26.243Z,8.20
2019-04-28T20:14:55.090Z,8.20
2019-04-28T20:17:23.991Z,8.20
2019-04-28T20:19:52.831Z,8.10
2019-04-28T20:22:21.735Z,8.10
2019-04-28T20:24:50.675Z,8.00
2019-04-28T20:27:19.487Z,7.80
2019-04-28T20:29:48.319Z,7.60
2019-04-28T20:32:17.297Z,7.50
2019-04-28T20:34:46.215Z,7.40
2019-04-28T20:37:28.271Z,7.40
2019-04-28T20:40:01.447Z,7.40
2019-04-28T20:42:48.839Z,7.40
2019-04-28T20:45:17.899Z,7.30
2019-04-28T20:47:46.723Z,7.30
2019-04-28T20:50:15.767Z,7.20
2019-04-28T20:52:44.646Z,7.30
2019-04-28T20:55:13.633Z,7.30
2019-04-28T20:57:42.467Z,7.30
2019-04-28T21:00:11.743Z,7.30
2019-04-28T21:02:40.561Z,7.30
2019-04-28T21:05:09.658Z,7.30
2019-04-28T21:07:38.475Z,7.30
2019-04-28T21:10:07.459Z,7.30
2019-04-28T21:12:36.428Z,7.30
2019-04-28T21:15:05.512Z,7.20
2019-04-28T21:17:34.351Z,7.20
2019-04-28T21:20:03.218Z,7.10
2019-04-28T21:22:32.093Z,7.00
2019-04-28T21:25:00.948Z,7.10
2019-04-28T21:27:29.758Z,7.00
2019-04-28T21:29:58.681Z,7.00
2019-04-28T21:32:27.499Z,6.90
2019-04-28T21:34:56.387Z,6.90
2019-04-28T21:37:25.286Z,6.90
2019-04-28T21:39:54.128Z,6.80
2019-04-28T21:42:25.128Z,6.80
2019-04-28T21:45:09.618Z,6.80
2019-04-28T21:47:38.518Z,6.60
2019-04-28T21:50:07.824Z,6.50
2019-04-28T21:52:36.634Z,6.50
2019-04-28T21:55:06.248Z,6.40
2019-04-28T21:57:35.071Z,6.50
2019-04-28T22:00:06.310Z,6.40
2019-04-28T22:02:35.295Z,6.40
2019-04-28T22:05:04.643Z,6.40
2019-04-28T22:07:33.554Z,6.40
2019-04-28T22:10:02.431Z,6.40
2019-04-28T22:12:31.258Z,6.30
2019-04-28T22:15:00.070Z,6.30
2019-04-28T22:17:28.896Z,6.30
2019-04-28T22:19:57.698Z,6.30
2019-04-28T22:22:26.520Z,6.30
2019-04-28T22:25:04.219Z,6.20
2019-04-28T22:27:36.886Z,6.10
2019-04-28T22:30:07.107Z,6.10
2019-04-28T22:32:36.010Z,6.00
2019-04-28T22:35:05.294Z,5.90
2019-04-28T22:37:34.191Z,5.80
2019-04-28T22:40:03.185Z,5.70
2019-04-28T22:42:32.007Z,5.60
2019-04-28T22:45:00.810Z,5.60
2019-04-28T22:47:29.650Z,5.60
2019-04-28T22:49:58.502Z,5.60
2019-04-28T22:52:27.358Z,5.60
2019-04-28T22:55:20.263Z,5.60
2019-04-28T22:57:56.022Z,5.50
2019-04-28T23:00:43.365Z,5.60
2019-04-28T23:03:16.332Z,5.60
2019-04-28T23:05:45.279Z,5.40
2019-04-28T23:08:14.264Z,5.20
2019-04-28T23:10:43.436Z,5.10
2019-04-28T23:13:12.414Z,5.00
2019-04-28T23:15:41.386Z,5.10
2019-04-28T23:18:10.378Z,5.00
2019-04-28T23:20:41.316Z,4.90
2019-04-28T23:23:10.826Z,4.90
2019-04-28T23:25:39.658Z,4.90
2019-04-28T23:28:08.551Z,5.00
2019-04-28T23:30:41.363Z,5.00
2019-04-28T23:33:10.354Z,5.00
2019-04-28T23:35:39.192Z,4.90
2019-04-28T23:38:08.172Z,4.70
2019-04-28T23:40:38.971Z,4.70
2019-04-28T23:43:11.710Z,4.80
2019-04-28T23:45:40.600Z,4.80
2019-04-28T23:48:09.498Z,4.90
2019-04-28T23:50:49.476Z,4.90
2019-04-28T23:53:20.661Z,4.90
2019-04-28T23:55:49.526Z,4.90
2019-04-28T23:58:18.384Z,4.90
